sensor_id;sensor_type;location;lat;lon;timestamp;pressure;altitude;pressure_sealevel;temperature;humidity
9462;BME280;4769;42.660;23.262;2023-03-23T00:00:03;93959.19;;;8.42;100.00
9462;BME280;4769;42.660;23.262;2023-03-23T00:02:30;93965.59;;;8.46;100.00
9462;BME280;4769;42.660;23.262;2023-03-23T00:04:56;93957.03;;;8.39;100.00
9462;BME280;4769;42.660;23.262;2023-03-23T00:07:23;93956.13;;;8.34;100.00
9462;BME280;4769;42.660;23.262;2023-03-23T00:09:51;93941.94;;;8.35;100.00
9462;BME280;4769;42.660;23.262;2023-03-23T00:12:17;93954.41;;;8.39;100.00
9462;BME280;4769;42.660;23.262;2023-03-23T00:14:43;93949.25;;;8.44;100.00
9462;BME280;4769;42.660;23.262;2023-03-23T00:17:09;93941.94;;;8.35;100.00
9462;BME280;4769;42.660;23.262;2023-03-23T00:19:35;93950.22;;;8.27;100.00
9462;BME280;4769;42.660;23.262;2023-03-23T00:22:01;93945.84;;;8.21;100.00
9462;BME280;4769;42.660;23.262;2023-03-23T00:24:26;93955.09;;;8.23;100.00
9462;BME280;4769;42.660;23.262;2023-03-23T00:26:55;93944.44;;;8.18;100.00
9462;BME280;4769;42.660;23.262;2023-03-23T00:29:22;93952.00;;;8.15;100.00
9462;BME280;4769;42.660;23.262;2023-03-23T00:31:49;93953.59;;;8.16;100.00
9462;BME280;4769;42.660;23.262;2023-03-23T00:34:17;93950.75;;;8.06;100.00
9462;BME280;4769;42.660;23.262;2023-03-23T00:36:44;93966.16;;;8.02;100.00
9462;BME280;4769;42.660;23.262;2023-03-23T00:39:10;93950.50;;;7.84;100.00
9462;BME280;4769;42.660;23.262;2023-03-23T00:41:36;93972.19;;;7.91;100.00
9462;BME280;4769;42.660;23.262;2023-03-23T00:44:04;93974.34;;;7.83;100.00
9462;BME280;4769;42.660;23.262;2023-03-23T00:46:30;93973.56;;;7.82;100.00
9462;BME280;4769;42.660;23.262;2023-03-23T00:48:56;93967.59;;;7.64;100.00
9462;BME280;4769;42.660;23.262;2023-03-23T00:51:22;93972.72;;;7.59;100.00
9462;BME280;4769;42.660;23.262;2023-03-23T00:53:48;93974.09;;;7.61;100.00
9462;BME280;4769;42.660;23.262;2023-03-23T00:56:14;93976.31;;;7.76;100.00
9462;BME280;4769;42.660;23.262;2023-03-23T00:58:40;93973.41;;;7.66;100.00
9462;BME280;4769;42.660;23.262;2023-03-23T01:01:09;93984.38;;;7.63;100.00
9462;BME280;4769;42.660;23.262;2023-03-23T01:03:35;93974.09;;;7.61;100.00
9462;BME280;4769;42.660;23.262;2023-03-23T01:06:05;93979.69;;;7.65;100.00
9462;BME280;4769;42.660;23.262;2023-03-23T01:08:32;93981.19;;;7.72;100.00
9462;BME280;4769;42.660;23.262;2023-03-23T01:11:02;93981.56;;;7.76;100.00
9462;BME280;4769;42.660;23.262;2023-03-23T01:13:28;93988.19;;;7.90;100.00
9462;BME280;4769;42.660;23.262;2023-03-23T01:15:54;93987.81;;;7.98;100.00
9462;BME280;4769;42.660;23.262;2023-03-23T01:18:22;93984.75;;;8.01;100.00
9462;BME280;4769;42.660;23.262;2023-03-23T01:20:48;93985.56;;;7.90;100.00
9462;BME280;4769;42.660;23.262;2023-03-23T01:23:14;93979.16;;;7.74;100.00
9462;BME280;4769;42.660;23.262;2023-03-23T01:25:39;93975.59;;;7.80;100.00
9462;BME280;4769;42.660;23.262;2023-03-23T01:28:05;93985.56;;;7.90;100.00
9462;BME280;4769;42.660;23.262;2023-03-23T01:30:31;93980.44;;;7.95;100.00
9462;BME280;4769;42.660;23.262;2023-03-23T01:32:57;93973.81;;;7.92;100.00
9462;BME280;4769;42.660;23.262;2023-03-23T01:35:25;93978.81;;;7.94;100.00
9462;BME280;4769;42.660;23.262;2023-03-23T01:37:51;93972.06;;;7.98;100.00
9462;BME280;4769;42.660;23.262;2023-03-23T01:40:16;93980.66;;;8.05;100.00
9462;BME280;4769;42.660;23.262;2023-03-23T01:42:42;93981.44;;;8.05;100.00
9462;BME280;4769;42.660;23.262;2023-03-23T01:45:30;93973.81;;;8.04;100.00
9462;BME280;4769;42.660;23.262;2023-03-23T01:48:02;93973.56;;;8.05;100.00
9462;BME280;4769;42.660;23.262;2023-03-23T01:50:37;93974.03;;;8.02;100.00
9462;BME280;4769;42.660;23.262;2023-03-23T01:53:06;93965.00;;;8.10;100.00
9462;BME280;4769;42.660;23.262;2023-03-23T01:55:33;93953.94;;;8.08;100.00
9462;BME280;4769;42.660;23.262;2023-03-23T01:57:59;93963.66;;;8.07;100.00
9462;BME280;4769;42.660;23.262;2023-03-23T02:00:25;93962.28;;;8.05;100.00
9462;BME280;4769;42.660;23.262;2023-03-23T02:02:52;93959.31;;;7.90;100.00
9462;BME280;4769;42.660;23.262;2023-03-23T02:05:24;93962.28;;;8.05;100.00
9462;BME280;4769;42.660;23.262;2023-03-23T02:07:54;93952.22;;;7.90;100.00
9462;BME280;4769;42.660;23.262;2023-03-23T02:10:22;93959.03;;;7.80;100.00
9462;BME280;4769;42.660;23.262;2023-03-23T02:12:48;93956.91;;;7.77;100.00
9462;BME280;4769;42.660;23.262;2023-03-23T02:15:13;93955.97;;;7.71;100.00
9462;BME280;4769;42.660;23.262;2023-03-23T02:17:43;93961.00;;;7.84;100.00
9462;BME280;4769;42.660;23.262;2023-03-23T02:20:23;93966.16;;;8.02;100.00
9462;BME280;4769;42.660;23.262;2023-03-23T02:23:23;93966.38;;;8.01;100.00
9462;BME280;4769;42.660;23.262;2023-03-23T02:26:15;93967.88;;;8.08;100.00
9462;BME280;4769;42.660;23.262;2023-03-23T02:29:12;93957.03;;;8.16;100.00
9462;BME280;4769;42.660;23.262;2023-03-23T02:31:47;93966.50;;;8.17;100.00
9462;BME280;4769;42.660;23.262;2023-03-23T02:34:25;93966.41;;;8.24;100.00
9462;BME280;4769;42.660;23.262;2023-03-23T02:36:55;93956.47;;;8.26;100.00
9462;BME280;4769;42.660;23.262;2023-03-23T02:39:26;93957.72;;;8.35;100.00
9462;BME280;4769;42.660;23.262;2023-03-23T02:41:56;93960.81;;;8.43;100.00
9462;BME280;4769;42.660;23.262;2023-03-23T02:44:24;93961.38;;;8.45;100.00
9462;BME280;4769;42.660;23.262;2023-03-23T02:46:53;93963.66;;;8.53;100.00
9462;BME280;4769;42.660;23.262;2023-03-23T02:49:22;93962.91;;;8.69;100.00
9462;BME280;4769;42.660;23.262;2023-03-23T02:51:50;93970.56;;;8.71;100.00
9462;BME280;4769;42.660;23.262;2023-03-23T02:54:18;93968.50;;;8.73;100.00
9462;BME280;4769;42.660;23.262;2023-03-23T02:56:44;93968.28;;;8.74;100.00
9462;BME280;4769;42.660;23.262;2023-03-23T02:59:10;93971.03;;;8.68;100.00
9462;BME280;4769;42.660;23.262;2023-03-23T03:02:01;93980.88;;;8.72;100.00
9462;BME280;4769;42.660;23.262;2023-03-23T03:04:33;93972.41;;;8.59;100.00
9462;BME280;4769;42.660;23.262;2023-03-23T03:07:27;93971.97;;;8.50;100.00
9462;BME280;4769;42.660;23.262;2023-03-23T03:09:57;93974.41;;;8.40;100.00
9462;BME280;4769;42.660;23.262;2023-03-23T03:12:32;93986.38;;;8.48;100.00
9462;BME280;4769;42.660;23.262;2023-03-23T03:15:08;93994.59;;;8.40;100.00
9462;BME280;4769;42.660;23.262;2023-03-23T03:17:40;93997.59;;;8.20;100.00
9462;BME280;4769;42.660;23.262;2023-03-23T03:20:10;94003.25;;;8.06;100.00
9462;BME280;4769;42.660;23.262;2023-03-23T03:22:38;94006.22;;;7.98;100.00
9462;BME280;4769;42.660;23.262;2023-03-23T03:25:06;94008.03;;;7.86;100.00
9462;BME280;4769;42.660;23.262;2023-03-23T03:27:32;94010.94;;;7.66;100.00
9462;BME280;4769;42.660;23.262;2023-03-23T03:30:01;94014.34;;;7.55;100.00
9462;BME280;4769;42.660;23.262;2023-03-23T03:32:31;94014.88;;;7.46;100.00
9462;BME280;4769;42.660;23.262;2023-03-23T03:35:00;94012.25;;;7.46;100.00
9462;BME280;4769;42.660;23.262;2023-03-23T03:37:33;94011.81;;;7.49;100.00
9462;BME280;4769;42.660;23.262;2023-03-23T03:39:59;94006.34;;;7.50;100.00
9462;BME280;4769;42.660;23.262;2023-03-23T03:42:25;94007.22;;;7.44;100.00
9462;BME280;4769;42.660;23.262;2023-03-23T03:44:50;94011.09;;;7.42;100.00
9462;BME280;4769;42.660;23.262;2023-03-23T03:47:16;94014.31;;;7.44;100.00
9462;BME280;4769;42.660;23.262;2023-03-23T03:49:42;94007.09;;;7.39;100.00
9462;BME280;4769;42.660;23.262;2023-03-23T03:52:07;94001.25;;;7.26;100.00
9462;BME280;4769;42.660;23.262;2023-03-23T03:54:35;94005.13;;;7.23;100.00
9462;BME280;4769;42.660;23.262;2023-03-23T03:57:01;94005.22;;;7.17;100.00
9462;BME280;4769;42.660;23.262;2023-03-23T03:59:27;94002.59;;;7.17;100.00
9462;BME280;4769;42.660;23.262;2023-03-23T04:01:53;94004.63;;;7.15;100.00
9462;BME280;4769;42.660;23.262;2023-03-23T04:04:18;94000.84;;;7.11;100.00
9462;BME280;4769;42.660;23.262;2023-03-23T04:06:45;93999.09;;;7.05;100.00
9462;BME280;4769;42.660;23.262;2023-03-23T04:09:11;93999.63;;;6.95;100.00
9462;BME280;4769;42.660;23.262;2023-03-23T04:11:39;93996.72;;;7.03;100.00
9462;BME280;4769;42.660;23.262;2023-03-23T04:14:05;93999.22;;;7.10;100.00
9462;BME280;4769;42.660;23.262;2023-03-23T04:16:30;93990.06;;;7.01;100.00
9462;BME280;4769;42.660;23.262;2023-03-23T04:18:56;93994.09;;;7.03;100.00
9462;BME280;4769;42.660;23.262;2023-03-23T04:21:22;93993.22;;;7.09;100.00
9462;BME280;4769;42.660;23.262;2023-03-23T04:23:47;93994.66;;;7.05;100.00
9462;BME280;4769;42.660;23.262;2023-03-23T04:26:13;94001.72;;;7.05;100.00
9462;BME280;4769;42.660;23.262;2023-03-23T04:28:41;94001.41;;;7.13;100.00
9462;BME280;4769;42.660;23.262;2023-03-23T04:31:07;93999.69;;;7.07;100.00
9462;BME280;4769;42.660;23.262;2023-03-23T04:33:33;94000.25;;;7.09;100.00
9462;BME280;4769;42.660;23.262;2023-03-23T04:36:00;93995.47;;;7.06;100.00
9462;BME280;4769;42.660;23.262;2023-03-23T04:38:27;93997.63;;;7.09;100.00
9462;BME280;4769;42.660;23.262;2023-03-23T04:40:55;93994.66;;;7.05;100.00
9462;BME280;4769;42.660;23.262;2023-03-23T04:43:21;94003.56;;;7.04;100.00
9462;BME280;4769;42.660;23.262;2023-03-23T04:45:52;94009.63;;;7.16;100.00
9462;BME280;4769;42.660;23.262;2023-03-23T04:48:18;94008.94;;;7.09;100.00
9462;BME280;4769;42.660;23.262;2023-03-23T04:50:44;94006.91;;;6.93;100.00
9462;BME280;4769;42.660;23.262;2023-03-23T04:53:09;94006.72;;;6.59;100.00
9462;BME280;4769;42.660;23.262;2023-03-23T04:55:36;94010.22;;;6.71;100.00
9462;BME280;4769;42.660;23.262;2023-03-23T04:58:02;94012.75;;;6.59;100.00
9462;BME280;4769;42.660;23.262;2023-03-23T05:00:27;94022.34;;;6.65;100.00
9462;BME280;4769;42.660;23.262;2023-03-23T05:02:56;94017.13;;;6.65;100.00
9462;BME280;4769;42.660;23.262;2023-03-23T05:05:22;94026.00;;;6.64;100.00
9462;BME280;4769;42.660;23.262;2023-03-23T05:07:48;94026.75;;;6.71;100.00
9462;BME280;4769;42.660;23.262;2023-03-23T05:10:15;94036.06;;;6.85;100.00
9462;BME280;4769;42.660;23.262;2023-03-23T05:12:41;94023.38;;;6.82;100.00
9462;BME280;4769;42.660;23.262;2023-03-23T05:15:08;94033.03;;;7.00;100.00
9462;BME280;4769;42.660;23.262;2023-03-23T05:17:35;94035.22;;;7.03;100.00
9462;BME280;4769;42.660;23.262;2023-03-23T05:20:05;94044.69;;;7.04;100.00
9462;BME280;4769;42.660;23.262;2023-03-23T05:22:31;94033.47;;;7.15;100.00
9462;BME280;4769;42.660;23.262;2023-03-23T05:24:56;94033.84;;;7.18;100.00
9462;BME280;4769;42.660;23.262;2023-03-23T05:27:22;94037.41;;;7.35;100.00
9462;BME280;4769;42.660;23.262;2023-03-23T05:29:48;94039.25;;;7.35;100.00
9462;BME280;4769;42.660;23.262;2023-03-23T05:32:14;94046.00;;;7.42;100.00
9462;BME280;4769;42.660;23.262;2023-03-23T05:34:39;94048.91;;;7.52;100.00
9462;BME280;4769;42.660;23.262;2023-03-23T05:37:08;94038.75;;;7.56;100.00
9462;BME280;4769;42.660;23.262;2023-03-23T05:39:34;94044.50;;;7.64;100.00
9462;BME280;4769;42.660;23.262;2023-03-23T05:42:00;94045.41;;;7.70;100.00
9462;BME280;4769;42.660;23.262;2023-03-23T05:44:26;94056.75;;;7.82;100.00
9462;BME280;4769;42.660;23.262;2023-03-23T05:46:52;94058.47;;;7.88;100.00
9462;BME280;4769;42.660;23.262;2023-03-23T05:49:18;94058.47;;;7.88;100.00
9462;BME280;4769;42.660;23.262;2023-03-23T05:51:44;94060.03;;;7.77;100.00
9462;BME280;4769;42.660;23.262;2023-03-23T05:54:13;94056.47;;;7.60;100.00
9462;BME280;4769;42.660;23.262;2023-03-23T05:56:39;94062.78;;;7.71;100.00
9462;BME280;4769;42.660;23.262;2023-03-23T05:59:05;94056.50;;;7.72;100.00
9462;BME280;4769;42.660;23.262;2023-03-23T06:01:31;94067.69;;;7.79;100.00
9462;BME280;4769;42.660;23.262;2023-03-23T06:03:56;94064.59;;;7.70;100.00
9462;BME280;4769;42.660;23.262;2023-03-23T06:06:22;94068.63;;;7.84;100.00
9462;BME280;4769;42.660;23.262;2023-03-23T06:08:48;94070.16;;;8.03;100.00
9462;BME280;4769;42.660;23.262;2023-03-23T06:11:16;94061.94;;;8.11;100.00
9462;BME280;4769;42.660;23.262;2023-03-23T06:13:42;94077.41;;;8.31;100.00
9462;BME280;4769;42.660;23.262;2023-03-23T06:16:08;94067.25;;;8.34;100.00
9462;BME280;4769;42.660;23.262;2023-03-23T06:18:34;94064.41;;;8.36;100.00
9462;BME280;4769;42.660;23.262;2023-03-23T06:21:00;94070.69;;;8.46;100.00
9462;BME280;4769;42.660;23.262;2023-03-23T06:23:25;94067.38;;;8.62;100.00
9462;BME280;4769;42.660;23.262;2023-03-23T06:25:53;94073.63;;;8.73;100.00
9462;BME280;4769;42.660;23.262;2023-03-23T06:28:22;94060.16;;;8.81;100.00
9462;BME280;4769;42.660;23.262;2023-03-23T06:30:48;94067.88;;;9.10;100.00
9462;BME280;4769;42.660;23.262;2023-03-23T06:33:14;94053.91;;;9.21;100.00
9462;BME280;4769;42.660;23.262;2023-03-23T06:35:39;94070.66;;;9.43;100.00
9462;BME280;4769;42.660;23.262;2023-03-23T06:38:05;94069.94;;;9.59;100.00
9462;BME280;4769;42.660;23.262;2023-03-23T06:40:31;94060.84;;;9.67;100.00
9462;BME280;4769;42.660;23.262;2023-03-23T06:42:57;94075.31;;;9.81;100.00
9462;BME280;4769;42.660;23.262;2023-03-23T06:45:26;94076.47;;;9.85;100.00
9462;BME280;4769;42.660;23.262;2023-03-23T06:47:51;94078.69;;;9.93;100.00
9462;BME280;4769;42.660;23.262;2023-03-23T06:50:17;94075.66;;;10.01;100.00
9462;BME280;4769;42.660;23.262;2023-03-23T06:52:45;94071.41;;;10.11;100.00
9462;BME280;4769;42.660;23.262;2023-03-23T06:55:11;94077.63;;;10.22;100.00
9462;BME280;4769;42.660;23.262;2023-03-23T06:57:36;94084.19;;;10.36;100.00
9462;BME280;4769;42.660;23.262;2023-03-23T07:00:03;94081.16;;;10.44;100.00
9462;BME280;4769;42.660;23.262;2023-03-23T07:02:31;94083.94;;;10.54;98.92
9462;BME280;4769;42.660;23.262;2023-03-23T07:04:57;94087.84;;;10.68;98.73
9462;BME280;4769;42.660;23.262;2023-03-23T07:07:23;94085.25;;;10.89;98.06
9462;BME280;4769;42.660;23.262;2023-03-23T07:09:48;94090.72;;;10.99;96.80
9462;BME280;4769;42.660;23.262;2023-03-23T07:12:14;94089.50;;;11.07;96.78
9462;BME280;4769;42.660;23.262;2023-03-23T07:14:40;94095.78;;;11.22;95.58
9462;BME280;4769;42.660;23.262;2023-03-23T07:17:05;94091.22;;;11.39;94.32
9462;BME280;4769;42.660;23.262;2023-03-23T07:19:34;94093.69;;;11.46;93.16
9462;BME280;4769;42.660;23.262;2023-03-23T07:21:59;94084.59;;;11.37;92.88
9462;BME280;4769;42.660;23.262;2023-03-23T07:24:25;94089.56;;;11.55;93.36
9462;BME280;4769;42.660;23.262;2023-03-23T07:26:51;94088.72;;;11.71;92.60
9462;BME280;4769;42.660;23.262;2023-03-23T07:29:16;94089.34;;;11.78;92.11
9462;BME280;4769;42.660;23.262;2023-03-23T07:31:42;94089.59;;;12.03;91.88
9462;BME280;4769;42.660;23.262;2023-03-23T07:34:14;94096.72;;;12.29;90.53
9462;BME280;4769;42.660;23.262;2023-03-23T07:37:05;94094.38;;;12.32;89.12
9462;BME280;4769;42.660;23.262;2023-03-23T07:39:31;94103.44;;;12.41;87.74
9462;BME280;4769;42.660;23.262;2023-03-23T07:41:56;94103.38;;;12.68;87.13
9462;BME280;4769;42.660;23.262;2023-03-23T07:44:22;94098.06;;;12.63;87.45
9462;BME280;4769;42.660;23.262;2023-03-23T07:46:48;94109.84;;;12.82;86.24
9462;BME280;4769;42.660;23.262;2023-03-23T07:49:16;94103.94;;;13.01;85.38
9462;BME280;4769;42.660;23.262;2023-03-23T07:51:45;94106.50;;;13.33;84.03
9462;BME280;4769;42.660;23.262;2023-03-23T07:54:11;94110.88;;;13.54;82.50
9462;BME280;4769;42.660;23.262;2023-03-23T07:56:38;94107.41;;;13.58;82.18
9462;BME280;4769;42.660;23.262;2023-03-23T07:59:03;94104.72;;;13.48;80.90
9462;BME280;4769;42.660;23.262;2023-03-23T08:01:29;94105.75;;;13.37;82.30
9462;BME280;4769;42.660;23.262;2023-03-23T08:03:55;94116.00;;;13.80;80.94
9462;BME280;4769;42.660;23.262;2023-03-23T08:06:20;94111.78;;;13.89;79.61
9462;BME280;4769;42.660;23.262;2023-03-23T08:08:49;94116.28;;;13.84;79.15
9462;BME280;4769;42.660;23.262;2023-03-23T08:11:15;94109.47;;;14.13;77.57
9462;BME280;4769;42.660;23.262;2023-03-23T08:13:41;94106.03;;;14.18;75.66
9462;BME280;4769;42.660;23.262;2023-03-23T08:16:07;94120.06;;;14.08;76.94
9462;BME280;4769;42.660;23.262;2023-03-23T08:18:33;94117.78;;;14.47;75.07
9462;BME280;4769;42.660;23.262;2023-03-23T08:20:59;94108.50;;;14.49;75.75
9462;BME280;4769;42.660;23.262;2023-03-23T08:23:24;94114.09;;;14.73;74.87
9462;BME280;4769;42.660;23.262;2023-03-23T08:25:53;94111.97;;;14.90;73.40
9462;BME280;4769;42.660;23.262;2023-03-23T08:28:19;94110.63;;;15.17;71.38
9462;BME280;4769;42.660;23.262;2023-03-23T08:30:45;94103.16;;;15.29;71.00
9462;BME280;4769;42.660;23.262;2023-03-23T08:33:11;94092.53;;;15.34;71.82
9462;BME280;4769;42.660;23.262;2023-03-23T08:35:36;94103.91;;;15.55;68.96
9462;BME280;4769;42.660;23.262;2023-03-23T08:38:02;94099.34;;;15.70;68.06
9462;BME280;4769;42.660;23.262;2023-03-23T08:40:28;94098.94;;;16.02;65.94
9462;BME280;4769;42.660;23.262;2023-03-23T08:42:56;94100.09;;;15.86;63.33
9462;BME280;4769;42.660;23.262;2023-03-23T08:45:23;94099.16;;;16.15;61.21
9462;BME280;4769;42.660;23.262;2023-03-23T08:47:50;94095.97;;;16.08;62.30
9462;BME280;4769;42.660;23.262;2023-03-23T08:50:17;94099.75;;;15.97;59.04
9462;BME280;4769;42.660;23.262;2023-03-23T08:52:43;94094.00;;;16.29;59.20
9462;BME280;4769;42.660;23.262;2023-03-23T08:55:09;94097.09;;;16.51;56.82
9462;BME280;4769;42.660;23.262;2023-03-23T08:57:35;94087.28;;;16.46;55.19
9462;BME280;4769;42.660;23.262;2023-03-23T09:00:07;94091.47;;;16.57;56.11
9462;BME280;4769;42.660;23.262;2023-03-23T09:02:33;94091.66;;;16.66;55.07
9462;BME280;4769;42.660;23.262;2023-03-23T09:04:59;94095.75;;;16.53;53.49
9462;BME280;4769;42.660;23.262;2023-03-23T09:07:25;94095.59;;;16.30;54.18
9462;BME280;4769;42.660;23.262;2023-03-23T09:09:50;94102.78;;;15.76;56.25
9462;BME280;4769;42.660;23.262;2023-03-23T09:12:16;94084.31;;;15.21;57.20
9462;BME280;4769;42.660;23.262;2023-03-23T09:14:42;94086.03;;;15.75;56.83
9462;BME280;4769;42.660;23.262;2023-03-23T09:17:10;94087.25;;;15.39;56.59
9462;BME280;4769;42.660;23.262;2023-03-23T09:19:36;94093.56;;;15.53;56.42
9462;BME280;4769;42.660;23.262;2023-03-23T09:22:02;94093.22;;;15.80;56.14
9462;BME280;4769;42.660;23.262;2023-03-23T09:24:28;94089.97;;;16.41;54.69
9462;BME280;4769;42.660;23.262;2023-03-23T09:26:53;94085.09;;;16.53;53.83
9462;BME280;4769;42.660;23.262;2023-03-23T09:29:19;94090.31;;;16.68;54.20
9462;BME280;4769;42.660;23.262;2023-03-23T09:31:45;94089.66;;;16.48;55.27
9462;BME280;4769;42.660;23.262;2023-03-23T09:34:14;94075.53;;;16.52;55.94
9462;BME280;4769;42.660;23.262;2023-03-23T09:36:42;94081.97;;;16.80;53.97
9462;BME280;4769;42.660;23.262;2023-03-23T09:39:07;94073.00;;;17.28;52.34
9462;BME280;4769;42.660;23.262;2023-03-23T09:41:50;94069.72;;;17.36;52.25
9462;BME280;4769;42.660;23.262;2023-03-23T09:44:24;94062.59;;;17.55;51.18
9462;BME280;4769;42.660;23.262;2023-03-23T09:46:58;94067.16;;;17.54;50.71
9462;BME280;4769;42.660;23.262;2023-03-23T09:49:32;94063.22;;;17.94;49.41
9462;BME280;4769;42.660;23.262;2023-03-23T09:52:01;94068.22;;;18.19;50.10
9462;BME280;4769;42.660;23.262;2023-03-23T09:54:31;94067.78;;;18.30;48.56
9462;BME280;4769;42.660;23.262;2023-03-23T09:57:00;94071.09;;;17.80;48.42
9462;BME280;4769;42.660;23.262;2023-03-23T09:59:30;94061.78;;;17.31;50.09
9462;BME280;4769;42.660;23.262;2023-03-23T10:01:59;94065.00;;;17.80;48.93
9462;BME280;4769;42.660;23.262;2023-03-23T10:04:36;94057.69;;;17.85;50.48
9462;BME280;4769;42.660;23.262;2023-03-23T10:07:09;94050.91;;;18.16;48.28
9462;BME280;4769;42.660;23.262;2023-03-23T10:09:36;94061.78;;;18.01;48.57
9462;BME280;4769;42.660;23.262;2023-03-23T10:12:09;94061.03;;;17.77;48.33
9462;BME280;4769;42.660;23.262;2023-03-23T10:14:45;94051.84;;;18.25;48.48
9462;BME280;4769;42.660;23.262;2023-03-23T10:17:16;94062.06;;;18.18;47.52
9462;BME280;4769;42.660;23.262;2023-03-23T10:19:53;94048.28;;;17.93;48.00
9462;BME280;4769;42.660;23.262;2023-03-23T10:22:25;94044.25;;;18.32;47.83
9462;BME280;4769;42.660;23.262;2023-03-23T10:24:59;94044.97;;;18.75;46.24
9462;BME280;4769;42.660;23.262;2023-03-23T10:27:33;94039.81;;;18.97;45.66
9462;BME280;4769;42.660;23.262;2023-03-23T10:30:08;94039.03;;;19.55;44.17
9462;BME280;4769;42.660;23.262;2023-03-23T10:32:44;94039.50;;;19.44;42.65
9462;BME280;4769;42.660;23.262;2023-03-23T10:35:18;94039.31;;;19.67;43.22
9462;BME280;4769;42.660;23.262;2023-03-23T10:37:48;94032.44;;;20.02;42.38
9462;BME280;4769;42.660;23.262;2023-03-23T10:40:17;94039.28;;;20.21;43.15
9462;BME280;4769;42.660;23.262;2023-03-23T10:42:43;94033.31;;;20.60;41.04
9462;BME280;4769;42.660;23.262;2023-03-23T10:45:16;94030.56;;;20.73;40.94
9462;BME280;4769;42.660;23.262;2023-03-23T10:47:46;94032.75;;;20.49;40.73
9462;BME280;4769;42.660;23.262;2023-03-23T10:50:18;94029.69;;;21.00;40.88
9462;BME280;4769;42.660;23.262;2023-03-23T10:52:49;94025.44;;;21.29;39.06
9462;BME280;4769;42.660;23.262;2023-03-23T10:55:18;94020.41;;;20.40;40.20
9462;BME280;4769;42.660;23.262;2023-03-23T10:57:46;94011.38;;;20.80;39.50
9462;BME280;4769;42.660;23.262;2023-03-23T11:00:18;94023.31;;;21.18;39.58
9462;BME280;4769;42.660;23.262;2023-03-23T11:02:47;94025.09;;;21.61;38.68
9462;BME280;4769;42.660;23.262;2023-03-23T11:05:19;94018.63;;;22.01;37.11
9462;BME280;4769;42.660;23.262;2023-03-23T11:07:51;94017.44;;;22.67;35.71
9462;BME280;4769;42.660;23.262;2023-03-23T11:10:22;94007.44;;;23.10;34.99
9462;BME280;4769;42.660;23.262;2023-03-23T11:12:48;94008.91;;;22.73;34.28
9462;BME280;4769;42.660;23.262;2023-03-23T11:15:25;94008.78;;;22.61;34.71
9462;BME280;4769;42.660;23.262;2023-03-23T11:17:59;93998.13;;;22.39;34.39
9462;BME280;4769;42.660;23.262;2023-03-23T11:20:32;93995.78;;;22.80;34.58
9462;BME280;4769;42.660;23.262;2023-03-23T11:22:59;93988.44;;;23.06;32.87
9462;BME280;4769;42.660;23.262;2023-03-23T11:25:25;93983.13;;;22.89;33.21
9462;BME280;4769;42.660;23.262;2023-03-23T11:27:50;93981.81;;;23.21;33.95
9462;BME280;4769;42.660;23.262;2023-03-23T11:30:22;93965.84;;;23.53;33.94
9462;BME280;4769;42.660;23.262;2023-03-23T11:32:49;93978.69;;;23.94;32.54
9462;BME280;4769;42.660;23.262;2023-03-23T11:35:17;93973.75;;;24.17;31.50
9462;BME280;4769;42.660;23.262;2023-03-23T11:37:49;93967.19;;;24.47;31.47
9462;BME280;4769;42.660;23.262;2023-03-23T11:40:18;93971.13;;;24.49;31.13
9462;BME280;4769;42.660;23.262;2023-03-23T11:42:45;93957.72;;;24.41;31.24
9462;BME280;4769;42.660;23.262;2023-03-23T11:45:20;93963.66;;;24.34;31.35
9462;BME280;4769;42.660;23.262;2023-03-23T11:47:55;93951.69;;;24.97;30.76
9462;BME280;4769;42.660;23.262;2023-03-23T11:50:24;93952.06;;;23.93;32.42
9462;BME280;4769;42.660;23.262;2023-03-23T11:53:00;93953.59;;;24.43;31.94
9462;BME280;4769;42.660;23.262;2023-03-23T11:55:30;93947.44;;;23.64;31.84
9462;BME280;4769;42.660;23.262;2023-03-23T11:58:00;93941.44;;;23.88;32.37
9462;BME280;4769;42.660;23.262;2023-03-23T12:00:27;93961.66;;;24.02;31.71
9462;BME280;4769;42.660;23.262;2023-03-23T12:03:09;93946.75;;;24.25;30.98
9462;BME280;4769;42.660;23.262;2023-03-23T12:05:47;93947.34;;;24.51;31.07
9462;BME280;4769;42.660;23.262;2023-03-23T12:08:26;93950.84;;;25.17;30.21
9462;BME280;4769;42.660;23.262;2023-03-23T12:11:01;93941.88;;;25.25;28.70
9462;BME280;4769;42.660;23.262;2023-03-23T12:13:43;93941.44;;;24.17;30.48
9462;BME280;4769;42.660;23.262;2023-03-23T12:16:17;93948.59;;;24.33;30.52
9462;BME280;4769;42.660;23.262;2023-03-23T12:18:50;93931.44;;;24.38;29.59
9462;BME280;4769;42.660;23.262;2023-03-23T12:21:23;93938.25;;;24.56;29.04
9462;BME280;4769;42.660;23.262;2023-03-23T12:23:57;93944.97;;;25.59;27.96
9462;BME280;4769;42.660;23.262;2023-03-23T12:26:28;93945.78;;;25.60;29.05
9462;BME280;4769;42.660;23.262;2023-03-23T12:29:18;93933.38;;;26.07;28.62
9462;BME280;4769;42.660;23.262;2023-03-23T12:31:56;93933.06;;;25.96;28.20
9462;BME280;4769;42.660;23.262;2023-03-23T12:34:33;93939.22;;;25.73;28.37
9462;BME280;4769;42.660;23.262;2023-03-23T12:37:15;93929.69;;;25.75;27.69
9462;BME280;4769;42.660;23.262;2023-03-23T12:40:00;93921.78;;;24.90;28.24
9462;BME280;4769;42.660;23.262;2023-03-23T12:42:36;93926.63;;;25.29;28.05
9462;BME280;4769;42.660;23.262;2023-03-23T12:45:14;93923.38;;;23.97;29.51
9462;BME280;4769;42.660;23.262;2023-03-23T12:47:46;93908.63;;;24.35;29.46
9462;BME280;4769;42.660;23.262;2023-03-23T12:50:16;93919.16;;;25.26;29.48
9462;BME280;4769;42.660;23.262;2023-03-23T12:52:50;93912.00;;;26.02;28.73
9462;BME280;4769;42.660;23.262;2023-03-23T12:55:25;93918.19;;;26.42;27.65
9462;BME280;4769;42.660;23.262;2023-03-23T12:57:56;93912.00;;;25.66;27.62
9462;BME280;4769;42.660;23.262;2023-03-23T13:00:26;93912.56;;;25.47;28.19
9462;BME280;4769;42.660;23.262;2023-03-23T13:02:57;93910.53;;;25.32;28.80
9462;BME280;4769;42.660;23.262;2023-03-23T13:05:33;93914.25;;;25.76;28.12
9462;BME280;4769;42.660;23.262;2023-03-23T13:08:04;93906.78;;;26.21;28.79
9462;BME280;4769;42.660;23.262;2023-03-23T13:10:38;93897.81;;;27.15;28.67
9462;BME280;4769;42.660;23.262;2023-03-23T13:13:12;93898.91;;;27.41;29.02
9462;BME280;4769;42.660;23.262;2023-03-23T13:15:46;93891.50;;;25.77;29.22
9462;BME280;4769;42.660;23.262;2023-03-23T13:18:23;93892.63;;;26.12;28.79